• Join FlightAware (Why Join?)
  • Login
  • US Flag 
03:44AM EST


 

Airport Tracker/Info


-or-


 

Live Flight TrackerFlight Track Log ✈ UAL3740 ✈ 18-Apr-2013 ✈ KPVD - KIAD

Flight Track Log - Related Links

Times and Time Zones

All times are in EDT time to prevent confusion due to time zone crossing. See the UAL3740 flight status page for this flight to view local times or setup timezone preferences in your user account.

Time Position Orientation Groundspeed Altitude Reporting Facility
EDT Latitude Longitude Course Direction KTS MPH feet Rate Location/Type
10:11AM 41.7581 -71.4189 North 181 208 1,400  Level Boston Center
10:12AM 41.8042 -71.4431 339° North 297 342 3,000 2,520 Climbing Boston Center
10:13AM 41.8361 -71.5233 298° West 239 275 5,700 2,820 Climbing Boston Center
10:14AM 41.8722 -71.6289 295° West 239 275 9,300 2,340 Climbing Boston Center
10:15AM 41.9106 -71.7203 299° West 262 302 11,000 1,860 Climbing Boston Center
10:16AM 41.9653 -71.8175 307° West 299 344 13,000 1,980 Climbing Boston Center
10:17AM 42.0136 -71.8981 309° West 325 374 15,000 1,980 Climbing Boston Center
10:18AM 42.0578 -72.0206 296° West 338 389 17,100 1,800 Climbing Boston Center
10:19AM 42.0792 -72.1603 282° West 345 397 18,700 1,680 Climbing Boston Center
10:20AM 42.0981 -72.2919 281° West 357 411 20,500 1,620 Climbing Boston Center
10:21AM 42.1192 -72.4261 282° West 364 419 21,900 1,500 Climbing Boston Center
10:22AM 42.1397 -72.5661 281° West 376 433 23,500 1,080 Climbing Boston Center
10:23AM 42.1542 -72.6950 279° West 381 438 24,100 840 Climbing Boston Center
10:24AM 42.1017 -72.8261 242° Southwest 374 430 25,200 960 Climbing Boston Center
10:25AM 42.0261 -72.9514 231° Southwest 374 430 26,000 480 Climbing Boston Center
10:26AM 41.9569 -73.0683 232° Southwest 408 470 26,200 900 Climbing Boston Center
10:27AM 41.8853 -73.1903 232° Southwest 419 482 27,900 900 Climbing Boston Center
10:28AM 41.8283 -73.2842 231° Southwest 419 482 28,000  Climbing Boston Center
10:29AM 41.7394 -73.4361 232° Southwest 424 488 28,000  Level Boston Center
10:30AM 41.6653 -73.5600 231° Southwest 429 494 28,000  Level Boston Center
10:32AM 41.4928 -73.8261 229° Southwest 420 483 28,000  Level New York Center
10:33AM 41.3967 -73.9183 216° Southwest 426 490 28,000 -60 Level New York Center
10:34AM 41.3144 -74.0306 226° Southwest 426 490 27,900  Descending New York Center
10:35AM 41.2319 -74.1478 227° Southwest 432 497 28,000  Climbing New York Center
10:36AM 41.1542 -74.2486 224° Southwest 432 497 28,000  Level New York Center
10:37AM 41.0694 -74.3628 225° Southwest 438 504 28,000  Level New York Center
10:38AM 40.9867 -74.4792 227° Southwest 438 504 28,000  Level New York Center
10:39AM 40.8969 -74.6117 228° Southwest 443 510 28,000  Level New York Center
10:40AM 40.8342 -74.7506 239° Southwest 443 510 28,000  Level New York Center
10:41AM 40.7733 -74.8867 239° Southwest 443 510 28,000 -600 Level New York Center
10:42AM 40.7100 -75.0225 238° Southwest 443 510 26,900 -1,380 Descending New York Center
10:43AM 40.6467 -75.1608 239° Southwest 437 503 25,400 -1,560 Descending New York Center
10:44AM 40.5875 -75.2939 240° Southwest 437 503 23,900 -1,500 Descending New York Center
10:45AM 40.5283 -75.4211 239° Southwest 432 497 22,400 -1,500 Descending New York Center
10:46AM 40.4736 -75.5400 239° Southwest 408 470 20,900 -1,200 Descending New York Center
10:47AM 40.4208 -75.6564 239° Southwest 392 451 20,000 -480 Descending New York Center
10:48AM 40.3639 -75.7750 238° Southwest 387 445 20,000  Level New York Center
10:49AM 40.3083 -75.8989 240° Southwest 387 445 20,000  Level New York Center
10:50AM 40.2514 -76.0144 237° Southwest 387 445 20,000 -300 Level New York Center
10:51AM 40.1958 -76.1350 239° Southwest 387 445 19,500 -960 Descending New York Center
10:52AM 40.1383 -76.2503 237° Southwest 380 437 18,100 -900 Descending New York Center
10:54AM 40.0500 -76.4667 242° Southwest 364 419 17,100 -600 Descending Potomac TRACON
10:55AM 39.9833 -76.5667 229° Southwest 370 426 16,500 -1,020 Descending Potomac TRACON
10:56AM 39.9500 -76.6833 250° West 369 425 15,100 -720 Descending Potomac TRACON
10:57AM 39.8833 -76.8000 233° Southwest 359 413 15,100 -60 Level Potomac TRACON
10:58AM 39.8500 -76.8833 243° Southwest 362 417 15,000  Descending Potomac TRACON
10:59AM 39.7833 -77.0000 233° Southwest 356 410 15,100 -1,140 Climbing Potomac TRACON
11:00AM 39.7333 -77.1167 241° Southwest 355 409 12,800 -2,520 Descending Potomac TRACON
11:01AM 39.6833 -77.2167 237° Southwest 316 364 10,100 -1,860 Descending Potomac TRACON
11:02AM 39.6500 -77.2833 237° Southwest 254 292 9,100 -1,260 Descending Potomac TRACON
11:03AM 39.5833 -77.3000 191° South 253 291 7,800 -1,200 Descending Potomac TRACON
11:04AM 39.5167 -77.3000 180° South 246 283 6,900 -1,140 Descending Potomac TRACON
11:05AM 39.4667 -77.3167 194° South 238 274 5,700 -1,200 Descending Potomac TRACON
11:06AM 39.4167 -77.3667 218° Southwest 197 227 4,700 -900 Descending Potomac TRACON
11:07AM 39.3833 -77.4167 229° Southwest 193 222 4,000 -300 Descending Potomac TRACON
11:08AM 39.3333 -77.4333 194° South 163 188 4,100  Climbing Potomac TRACON
11:09AM 39.2833 -77.4333 180° South 163 188 4,100 -300 Level Potomac TRACON
11:10AM 39.2500 -77.4333 180° South 170 196 3,600 -600 Descending Potomac TRACON
11:11AM 39.2000 -77.4333 180° South 171 197 3,000 -300 Descending Potomac TRACON
11:12AM 39.1667 -77.4333 180° South 142 163 3,100  Climbing Potomac TRACON
11:13AM 39.1167 -77.4333 180° South 143 165 3,100 -120 Level Potomac TRACON
11:14AM 39.0833 -77.4333 180° South 147 169 2,900 -540 Descending Potomac TRACON
11:15AM 39.0333 -77.4333 180° South 144 166 2,100 -840 Descending Potomac TRACON
11:16AM 39.0000 -77.4333 180° South 133 153 1,300 -780 Descending Potomac TRACON
11:17AM 38.9667 -77.4333 180° South 131 151 600 -720 Descending Potomac TRACON